Time;durP1;ratioP1;P1;durP2;ratioP2;P2;SDS_P1;SDS_P2;PMS_P1;PMS_P2;Temp;Humidity;BMP_temperature;BMP_pressure;BME280_temperature;BME280_humidity;BME280_pressure;Samples;Min_cycle;Max_cycle;Signal;HPM_P1;HPM_P2
2022/08/09 00:02:07;;;;;;;4.33;3.30;;;18.10;6.70;;;;;;5113492;28;20190;-70
2022/08/09 00:04:34;;;;;;;3.87;3.23;;;18.10;9.40;;;;;;5095237;28;20297;-70
2022/08/09 00:07:00;;;;;;;3.70;2.80;;;18.10;14.00;;;;;;5113352;28;20167;-70
2022/08/09 00:09:26;;;;;;;3.93;3.20;;;18.10;14.20;;;;;;5113489;28;20792;-70
2022/08/09 00:11:52;;;;;;;4.63;3.30;;;18.00;18.30;;;;;;5112999;28;20265;-70
2022/08/09 00:14:17;;;;;;;3.53;3.33;;;18.00;21.50;;;;;;5113392;28;20167;-71
2022/08/09 00:16:43;;;;;;;3.70;3.50;;;17.90;23.40;;;;;;5072315;28;20312;-70
2022/08/09 00:19:09;;;;;;;4.10;3.63;;;17.90;27.40;;;;;;5072807;28;20701;-70
2022/08/09 00:21:35;;;;;;;4.63;3.80;;;17.90;28.70;;;;;;5072653;28;20181;-70
2022/08/09 00:24:01;;;;;;;5.47;3.63;;;17.90;31.70;;;;;;5072874;28;20667;-70
2022/08/09 00:26:28;;;;;;;4.10;3.50;;;17.80;37.00;;;;;;5072241;28;20216;-69
2022/08/09 00:28:54;;;;;;;4.40;4.10;;;17.80;38.80;;;;;;5072902;28;20169;-69
2022/08/09 00:31:22;;;;;;;4.97;4.47;;;17.80;42.90;;;;;;5072337;28;20204;-70
2022/08/09 00:33:49;;;;;;;4.77;4.27;;;17.80;46.50;;;;;;5072470;28;20869;-70
2022/08/09 00:36:14;;;;;;;5.73;4.60;;;17.80;48.40;;;;;;5071269;28;20267;-70
2022/08/09 00:38:40;;;;;;;5.23;4.70;;;17.80;48.80;;;;;;5071362;28;20262;-70
2022/08/09 00:41:06;;;;;;;5.93;4.10;;;17.80;50.90;;;;;;5072214;28;20176;-70
2022/08/09 00:43:35;;;;;;;4.90;4.37;;;17.70;52.10;;;;;;5072621;28;20180;-70
2022/08/09 00:46:01;;;;;;;4.87;4.33;;;17.70;53.60;;;;;;5072204;28;20278;-70
2022/08/09 00:48:27;;;;;;;6.30;4.77;;;17.70;56.50;;;;;;5072548;28;20230;-70
2022/08/09 00:50:52;;;;;;;4.73;4.30;;;17.70;59.40;;;;;;5071185;28;20180;-70
2022/08/09 00:53:19;;;;;;;5.80;4.47;;;17.70;62.20;;;;;;5072672;28;20223;-70
2022/08/09 00:55:44;;;;;;;5.03;4.57;;;17.70;66.20;;;;;;5074374;28;20268;-70
2022/08/09 00:58:10;;;;;;;5.93;4.57;;;17.70;65.10;;;;;;5075938;28;20251;-70
2022/08/09 01:00:39;;;;;;;7.03;4.67;;;17.60;70.00;;;;;;5075606;28;20187;-70
2022/08/09 01:03:21;;;;;;;4.83;4.40;;;17.60;73.20;;;;;;5075897;28;20234;-69
2022/08/09 01:05:55;;;;;;;4.73;4.33;;;17.60;75.80;;;;;;5075859;28;20258;-69
2022/08/09 01:08:53;;;;;;;8.37;4.70;;;17.50;77.40;;;;;;5075851;28;20247;-69
2022/08/09 01:11:44;;;;;;;5.00;4.60;;;17.50;80.30;;;;;;5013898;28;20269;-69
2022/08/09 01:14:34;;;;;;;4.97;4.43;;;17.50;83.50;;;;;;4997332;28;20277;-70
2022/08/09 01:17:07;;;;;;;5.23;4.47;;;17.50;83.20;;;;;;5013821;28;20182;-69
2022/08/09 01:20:01;;;;;;;5.37;4.50;;;17.50;85.30;;;;;;5013704;28;20232;-69
2022/08/09 01:22:50;;;;;;;6.10;4.50;;;17.50;85.10;;;;;;4997255;28;20298;-70
2022/08/09 01:25:35;;;;;;;5.03;4.53;;;17.40;88.20;;;;;;5013306;28;20221;-71
2022/08/09 01:28:02;;;;;;;5.20;4.70;;;17.50;90.10;;;;;;5013751;28;20667;-70
2022/08/09 01:30:29;;;;;;;7.20;5.00;;;17.40;91.20;;;;;;4996905;28;20190;-69
2022/08/09 01:32:57;;;;;;;4.80;4.40;;;17.40;92.50;;;;;;5013515;28;20170;-69
2022/08/09 01:35:35;;;;;;;6.37;5.00;;;17.30;93.60;;;;;;5013391;28;20670;-70
2022/08/09 01:38:06;;;;;;;5.40;4.90;;;17.30;94.70;;;;;;5012924;28;20780;-69
2022/08/09 01:40:34;;;;;;;5.07;4.67;;;17.30;95.00;;;;;;5013429;28;20182;-70
2022/08/09 01:43:01;;;;;;;5.13;4.67;;;17.30;95.40;;;;;;5013387;28;20678;-69
2022/08/09 01:45:28;;;;;;;8.13;5.53;;;17.30;96.60;;;;;;5013219;28;20210;-69
2022/08/09 01:47:55;;;;;;;8.00;5.30;;;17.30;97.00;;;;;;5069587;28;20180;-70
2022/08/09 01:50:23;;;;;;;5.50;5.00;;;17.30;98.30;;;;;;5074937;28;20247;-69
2022/08/09 01:52:49;;;;;;;5.30;4.80;;;17.20;99.50;;;;;;5074485;28;20168;-70
2022/08/09 01:55:16;;;;;;;6.53;5.43;;;17.20;99.90;;;;;;5074899;28;20624;-70
2022/08/09 01:57:44;;;;;;;5.47;5.00;;;17.20;99.90;;;;;;5074775;28;20566;-69
2022/08/09 02:00:13;;;;;;;5.37;4.93;;;17.20;99.90;;;;;;5074736;28;20248;-69
2022/08/09 02:02:43;;;;;;;6.23;5.37;;;17.10;99.90;;;;;;5074843;28;20160;-69
2022/08/09 02:05:11;;;;;;;7.57;5.07;;;17.10;99.90;;;;;;5074160;28;20247;-69
2022/08/09 02:07:50;;;;;;;5.57;4.90;;;17.10;99.90;;;;;;5074104;28;20173;-69
2022/08/09 02:10:24;;;;;;;6.23;5.63;;;17.10;99.90;;;;;;5074501;28;20180;-69
2022/08/09 02:12:51;;;;;;;5.50;5.10;;;17.10;99.90;;;;;;5074756;28;20172;-70
2022/08/09 02:15:19;;;;;;;6.30;5.60;;;17.10;99.90;;;;;;5088462;28;20223;-69
2022/08/09 02:17:46;;;;;;;5.70;4.97;;;17.10;99.90;;;;;;5115035;28;20167;-70
2022/08/09 02:20:12;;;;;;;6.03;5.53;;;17.00;99.90;;;;;;5115181;28;20170;-70
2022/08/09 02:22:55;;;;;;;7.70;5.53;;;17.00;99.90;;;;;;5114870;28;20232;-70
2022/08/09 02:25:26;;;;;;;5.53;5.03;;;17.00;99.90;;;;;;5114830;28;20202;-69
2022/08/09 02:27:56;;;;;;;6.70;5.43;;;16.90;99.90;;;;;;5114810;28;20167;-69
2022/08/09 02:30:23;;;;;;;5.67;5.10;;;16.90;99.90;;;;;;5114529;28;20323;-70
2022/08/09 02:32:50;;;;;;;5.70;4.97;;;16.90;99.90;;;;;;5114762;28;20171;-69
2022/08/09 02:35:23;;;;;;;6.57;5.90;;;16.80;99.90;;;;;;5114628;28;20670;-69
2022/08/09 02:37:53;;;;;;;6.90;5.57;;;16.80;99.90;;;;;;5114453;28;20167;-69
2022/08/09 02:40:21;;;;;;;6.03;5.53;;;16.80;99.90;;;;;;5114474;28;20570;-69
2022/08/09 02:42:49;;;;;;;7.17;5.30;;;16.80;99.90;;;;;;5114411;28;20172;-69
2022/08/09 02:45:25;;;;;;;6.57;5.97;;;16.80;99.90;;;;;;5114336;28;20198;-69
2022/08/09 02:47:53;;;;;;;6.50;6.00;;;16.80;99.90;;;;;;5109533;28;20174;-70
2022/08/09 02:50:25;;;;;;;7.33;6.07;;;16.70;99.90;;;;;;5113871;28;20175;-70
2022/08/09 02:53:01;;;;;;;7.57;5.53;;;16.70;99.90;;;;;;5114524;28;20168;-69
2022/08/09 02:55:29;;;;;;;8.03;5.90;;;16.60;99.90;;;;;;5114257;28;20166;-69
2022/08/09 02:57:57;;;;;;;7.77;5.47;;;16.60;99.90;;;;;;5114223;28;20208;-69
2022/08/09 03:00:23;;;;;;;7.90;5.70;;;16.60;99.90;;;;;;5114107;28;20167;-69
2022/08/09 03:02:52;;;;;;;6.50;6.00;;;16.60;99.90;;;;;;5114275;28;20167;-69
2022/08/09 03:05:19;;;;;;;6.93;5.83;;;16.60;99.90;;;;;;5113730;28;20206;-69
2022/08/09 03:07:46;;;;;;;7.90;6.13;;;16.50;99.90;;;;;;5114109;28;20175;-69
2022/08/09 03:10:13;;;;;;;6.77;5.50;;;16.60;99.90;;;;;;5114171;28;20174;-71
2022/08/09 03:12:39;;;;;;;6.17;5.67;;;16.50;99.90;;;;;;5113940;28;20171;-69
2022/08/09 03:15:08;;;;;;;7.07;5.90;;;16.50;99.90;;;;;;5113828;28;20315;-69
2022/08/09 03:17:35;;;;;;;11.93;6.17;;;16.40;99.90;;;;;;5112974;28;20171;-69
2022/08/09 03:20:02;;;;;;;6.07;5.57;;;16.40;99.90;;;;;;5113236;28;20163;-69
2022/08/09 03:22:29;;;;;;;6.67;6.07;;;16.40;99.90;;;;;;5113725;28;20189;-70
2022/08/09 03:24:55;;;;;;;6.30;5.73;;;16.40;99.90;;;;;;5113883;28;20203;-69
2022/08/09 03:27:22;;;;;;;8.23;6.40;;;16.40;99.90;;;;;;5095535;28;20194;-70
2022/08/09 03:29:51;;;;;;;6.63;5.97;;;16.40;99.90;;;;;;5113427;28;20172;-70
2022/08/09 03:32:18;;;;;;;6.53;5.93;;;16.40;99.90;;;;;;5095552;28;20171;-70
2022/08/09 03:34:43;;;;;;;7.30;6.60;;;16.40;99.90;;;;;;5113148;28;20163;-70
2022/08/09 03:37:09;;;;;;;12.00;7.17;;;16.40;99.90;;;;;;5113365;28;20517;-69
2022/08/09 03:39:35;;;;;;;7.10;6.40;;;16.30;99.90;;;;;;5113365;28;20167;-70
2022/08/09 03:42:00;;;;;;;7.83;6.50;;;16.30;99.90;;;;;;5113248;28;20250;-69
2022/08/09 03:44:28;;;;;;;7.53;6.40;;;16.30;99.90;;;;;;5113333;28;20286;-69
2022/08/09 03:46:54;;;;;;;9.43;6.87;;;16.30;99.90;;;;;;5095248;28;20216;-70
2022/08/09 03:49:21;;;;;;;8.73;6.67;;;16.30;99.90;;;;;;5113013;28;20561;-69
2022/08/09 03:51:51;;;;;;;7.43;6.70;;;16.30;99.90;;;;;;5095214;28;20561;-70
2022/08/09 03:54:18;;;;;;;7.60;6.77;;;16.20;99.90;;;;;;5094783;28;20178;-70
2022/08/09 03:56:44;;;;;;;9.17;6.80;;;16.20;99.90;;;;;;5113413;28;20224;-70
2022/08/09 03:59:11;;;;;;;9.70;7.27;;;16.20;99.90;;;;;;5113002;28;20254;-71
2022/08/09 04:01:38;;;;;;;7.93;6.57;;;16.20;99.90;;;;;;5113276;28;20170;-70
2022/08/09 04:04:05;;;;;;;9.13;6.93;;;16.20;99.90;;;;;;5112730;28;20180;-70
2022/08/09 04:06:31;;;;;;;11.00;7.03;;;16.20;99.90;;;;;;5112405;28;20210;-70
2022/08/09 04:08:56;;;;;;;7.10;6.50;;;16.20;99.90;;;;;;5113018;28;20167;-69
2022/08/09 04:11:22;;;;;;;9.60;7.13;;;16.20;99.90;;;;;;5113175;28;20167;-70
2022/08/09 04:13:48;;;;;;;12.60;6.87;;;16.20;99.90;;;;;;5112956;28;20159;-69
2022/08/09 04:16:13;;;;;;;9.30;7.10;;;16.20;99.90;;;;;;5076377;28;20232;-70
2022/08/09 04:18:40;;;;;;;10.40;7.27;;;16.20;99.90;;;;;;5072292;28;20221;-69
2022/08/09 04:21:08;;;;;;;17.13;7.67;;;16.20;99.90;;;;;;5072376;28;20263;-69
2022/08/09 04:23:34;;;;;;;11.23;6.67;;;16.10;99.90;;;;;;5072331;28;20680;-69
2022/08/09 04:25:59;;;;;;;12.60;7.00;;;16.10;99.90;;;;;;5071052;28;20209;-69
2022/08/09 04:28:25;;;;;;;13.77;7.27;;;16.10;99.90;;;;;;5072493;28;20227;-69
2022/08/09 04:30:51;;;;;;;12.77;7.23;;;16.10;99.90;;;;;;5074621;28;20603;-70
2022/08/09 04:33:16;;;;;;;11.53;7.80;;;16.20;99.90;;;;;;5075647;28;20701;-70
2022/08/09 04:35:42;;;;;;;14.93;7.63;;;16.20;99.90;;;;;;5076078;28;20173;-70
2022/08/09 04:38:08;;;;;;;14.83;7.50;;;16.30;99.90;;;;;;5076031;28;20164;-69
2022/08/09 04:40:48;;;;;;;8.03;7.17;;;16.50;99.90;;;;;;5075353;28;20176;-70
2022/08/09 04:43:15;;;;;;;9.30;6.93;;;16.70;99.90;;;;;;5075739;28;20699;-69
2022/08/09 04:45:41;;;;;;;12.93;7.13;;;17.00;99.90;;;;;;5075473;28;20208;-69
2022/08/09 04:48:07;;;;;;;7.90;6.97;;;17.20;97.50;;;;;;5074196;28;20173;-69
2022/08/09 04:50:34;;;;;;;9.67;6.70;;;17.40;87.50;;;;;;5075887;28;20180;-69
2022/08/09 04:52:59;;;;;;;12.00;7.13;;;17.70;71.90;;;;;;5075380;28;20252;-69
2022/08/09 04:55:25;;;;;;;10.97;6.60;;;17.90;55.20;;;;;;5075737;28;20662;-70
2022/08/09 04:57:51;;;;;;;11.50;6.33;;;18.10;41.90;;;;;;5075281;28;20169;-70
2022/08/09 05:00:17;;;;;;;9.47;6.43;;;18.30;30.30;;;;;;5075294;28;20259;-70
2022/08/09 05:02:43;;;;;;;13.90;6.53;;;18.50;26.50;;;;;;5074750;28;20180;-70
2022/08/09 05:05:09;;;;;;;11.30;6.07;;;18.90;17.80;;;;;;5075465;28;20200;-70
2022/08/09 05:07:35;;;;;;;13.87;6.50;;;19.20;1.00;;;;;;5075422;28;20529;-70
2022/08/09 05:10:00;;;;;;;8.90;6.30;;;19.50;1.00;;;;;;5075195;28;20180;-71
2022/08/09 05:12:26;;;;;;;10.00;5.88;;;19.90;1.00;;;;;;5075249;28;20164;-71
2022/08/09 05:14:51;;;;;;;9.98;6.05;;;20.50;1.00;;;;;;5081056;28;20592;-72
2022/08/09 05:17:17;;;;;;;8.38;5.70;;;20.50;1.00;;;;;;5115171;28;20171;-71
2022/08/09 05:19:42;;;;;;;7.25;6.18;;;20.80;1.00;;;;;;5115483;28;20174;-71
2022/08/09 05:22:11;;;;;;;12.68;6.40;;;20.80;1.00;;;;;;5115304;28;20490;-71
2022/08/09 05:24:37;;;;;;;12.00;5.45;;;21.00;1.00;;;;;;5115418;28;20199;-72
2022/08/09 05:27:02;;;;;;;8.35;6.07;;;21.50;1.00;;;;;;5115373;28;20592;-72
2022/08/09 05:29:28;;;;;;;8.98;5.88;;;21.60;1.00;;;;;;5115283;28;20610;-72
2022/08/09 05:31:58;;;;;;;7.43;5.90;;;21.60;1.00;;;;;;5115125;28;20198;-72
2022/08/09 05:34:29;;;;;;;10.88;5.95;;;21.80;1.00;;;;;;5115945;28;20225;-73
2022/08/09 05:36:55;;;;;;;9.77;5.65;;;21.70;1.00;;;;;;5115299;28;20160;-72
2022/08/09 05:39:21;;;;;;;7.72;6.05;;;21.50;1.00;;;;;;5114750;28;20176;-73
2022/08/09 05:41:47;;;;;;;9.95;6.05;;;21.50;1.00;;;;;;5114180;28;20171;-73
2022/08/09 05:44:12;;;;;;;8.30;6.18;;;21.50;1.00;;;;;;5096731;28;20167;-73
2022/08/09 05:46:38;;;;;;;8.95;5.80;;;21.80;1.00;;;;;;5115122;28;20650;-73
2022/08/09 05:49:04;;;;;;;11.32;5.63;;;22.00;1.00;;;;;;5114970;28;20641;-74
2022/08/09 05:51:29;;;;;;;9.20;5.90;;;22.20;99.90;;;;;;5114850;28;20171;-73
2022/08/09 05:53:55;;;;;;;11.30;6.07;;;22.30;99.90;;;;;;5114807;28;20690;-74
2022/08/09 05:56:21;;;;;;;8.35;5.65;;;22.50;1.00;;;;;;5096660;28;20174;-73
2022/08/09 05:58:46;;;;;;;11.30;5.90;;;22.90;1.00;;;;;;5114568;28;20181;-73
2022/08/09 06:01:12;;;;;;;6.72;5.35;;;22.90;1.00;;;;;;5114471;28;20168;-74
2022/08/09 06:03:37;;;;;;;8.20;5.70;;;23.20;99.90;;;;;;5114656;28;20203;-73
2022/08/09 06:06:03;;;;;;;6.53;5.53;;;23.20;99.90;;;;;;5114600;28;20203;-74
2022/08/09 06:08:29;;;;;;;7.05;6.03;;;24.00;99.90;;;;;;5114286;28;20238;-76
2022/08/09 06:10:55;;;;;;;10.43;5.82;;;24.60;1.00;;;;;;5114122;28;20167;-75
2022/08/09 06:13:22;;;;;;;6.18;5.32;;;25.00;99.90;;;;;;5113868;28;20183;-75
2022/08/09 06:15:48;;;;;;;10.02;5.43;;;24.70;1.00;;;;;;5114170;28;20231;-75
2022/08/09 06:18:14;;;;;;;6.05;5.47;;;25.80;1.00;;;;;;5096040;28;20329;-76
2022/08/09 06:20:40;;;;;;;5.90;5.30;;;26.20;27.50;;;;;;5114597;28;20263;-75
2022/08/09 06:23:06;;;;;;;5.40;5.00;;;26.40;1.00;;;;;;5113759;28;20575;-75
2022/08/09 06:25:32;;;;;;;6.63;4.88;;;26.60;1.00;;;;;;5114433;28;20205;-75
2022/08/09 06:27:57;;;;;;;8.90;5.40;;;26.30;1.00;;;;;;5113670;28;20645;-75
2022/08/09 06:30:23;;;;;;;5.43;4.93;;;27.00;1.00;;;;;;5113668;28;20215;-74
2022/08/09 06:32:51;;;;;;;9.13;4.78;;;28.00;1.00;;;;;;5114353;28;20171;-74
2022/08/09 06:35:17;;;;;;;6.95;4.63;;;28.30;99.90;;;;;;5113903;28;20308;-74
2022/08/09 06:37:43;;;;;;;5.22;4.72;;;28.10;99.90;;;;;;5095942;28;20167;-74
2022/08/09 06:40:09;;;;;;;9.32;5.35;;;28.70;99.90;;;;;;5113028;28;20171;-74
2022/08/09 06:42:35;;;;;;;6.25;4.70;;;27.90;99.90;;;;;;5113800;28;20311;-74
2022/08/09 06:45:01;;;;;;;5.40;4.93;;;27.80;99.90;;;;;;5113388;28;20291;-75
2022/08/09 06:47:27;;;;;;;5.03;4.53;;;28.40;99.90;;;;;;5113552;28;20242;-73
2022/08/09 06:49:53;;;;;;;7.72;4.70;;;29.00;99.90;;;;;;5095470;28;20725;-75
2022/08/09 06:52:19;;;;;;;6.82;5.32;;;29.30;99.90;;;;;;5113505;28;20167;-74
2022/08/09 06:54:44;;;;;;;5.90;4.82;;;29.00;99.90;;;;;;5113382;28;20165;-74
2022/08/09 06:57:10;;;;;;;8.38;4.97;;;30.10;99.90;;;;;;5095210;28;20167;-74
2022/08/09 06:59:36;;;;;;;5.78;4.68;;;30.50;99.90;;;;;;5095325;28;20531;-74
2022/08/09 07:02:02;;;;;;;11.10;5.20;;;28.50;99.90;;;;;;5113304;28;20168;-75
2022/08/09 07:04:28;;;;;;;6.90;5.00;;;28.00;99.90;;;;;;5113133;28;20703;-75
2022/08/09 07:06:54;;;;;;;7.35;4.70;;;28.70;99.90;;;;;;5113850;28;20171;-77
2022/08/09 07:09:20;;;;;;;12.57;6.00;;;28.90;99.90;;;;;;5112783;28;20601;-75
2022/08/09 07:11:46;;;;;;;10.10;5.00;;;29.70;99.90;;;;;;5113073;28;20167;-75
2022/08/09 07:14:16;;;;;;;9.00;5.10;;;30.10;99.90;;;;;;5113852;28;20181;-74
2022/08/09 07:16:43;;;;;;;7.03;4.55;;;29.30;99.90;;;;;;5113286;28;20218;-74
2022/08/09 07:19:11;;;;;;;8.43;4.97;;;29.60;99.90;;;;;;5113248;28;20223;-74
2022/08/09 07:21:38;;;;;;;8.60;5.03;;;29.60;99.90;;;;;;5094865;28;20202;-74
2022/08/09 07:24:05;;;;;;;9.88;4.72;;;27.90;99.90;;;;;;5094806;28;20657;-72
2022/08/09 07:26:30;;;;;;;8.13;3.92;;;27.70;99.90;;;;;;5113126;28;20203;-74
2022/08/09 07:28:56;;;;;;;10.52;4.95;;;27.60;99.90;;;;;;5113780;28;20167;-74
2022/08/09 07:31:22;;;;;;;11.80;4.63;;;28.20;99.90;;;;;;5112933;28;20550;-74
2022/08/09 07:33:48;;;;;;;8.43;3.83;;;29.00;99.90;;;;;;5113040;28;20473;-75
2022/08/09 07:36:14;;;;;;;6.57;3.92;;;28.80;99.90;;;;;;5113366;28;20220;-74
2022/08/09 07:38:40;;;;;;;5.25;3.58;;;28.60;99.90;;;;;;5113329;28;20167;-75
2022/08/09 07:41:05;;;;;;;7.30;3.90;;;28.90;99.90;;;;;;5112446;28;20599;-76
2022/08/09 07:43:31;;;;;;;5.63;3.90;;;28.80;99.90;;;;;;5095013;28;20171;-74
2022/08/09 07:45:57;;;;;;;6.80;3.90;;;28.70;99.90;;;;;;5112898;28;20234;-77
2022/08/09 07:48:22;;;;;;;7.10;4.00;;;29.00;99.90;;;;;;5112999;28;20689;-77
2022/08/09 07:50:48;;;;;;;7.15;3.70;;;30.30;99.90;;;;;;5112961;28;20634;-76
2022/08/09 07:53:14;;;;;;;6.13;4.10;;;30.80;99.90;;;;;;5113023;28;20182;-76
2022/08/09 07:55:40;;;;;;;4.55;3.85;;;30.90;99.90;;;;;;5112037;28;20202;-76
2022/08/09 07:58:05;;;;;;;5.20;3.88;;;30.80;99.90;;;;;;5113134;28;20649;-74
2022/08/09 08:00:31;;;;;;;7.28;3.97;;;29.50;99.90;;;;;;5112600;28;20182;-75
2022/08/09 08:02:58;;;;;;;9.35;4.30;;;29.10;99.90;;;;;;5112045;28;20204;-75
2022/08/09 08:05:24;;;;;;;5.50;3.78;;;29.60;99.90;;;;;;5116093;28;20241;-75
2022/08/09 08:07:50;;;;;;;5.10;3.30;;;31.20;99.90;;;;;;5117131;28;20203;-75
2022/08/09 08:10:16;;;;;;;3.28;3.00;;;30.80;99.90;;;;;;5116597;28;20168;-75
2022/08/09 08:12:42;;;;;;;5.35;3.05;;;30.10;99.90;;;;;;5116965;28;20182;-76
2022/08/09 08:15:09;;;;;;;12.45;4.00;;;29.40;99.90;;;;;;5116300;28;20292;-77
2022/08/09 08:17:35;;;;;;;4.97;3.30;;;29.80;99.90;;;;;;5116935;28;20256;-75
2022/08/09 08:20:01;;;;;;;5.72;2.90;;;29.60;99.90;;;;;;5116664;28;20297;-75
2022/08/09 08:22:26;;;;;;;5.75;2.90;;;29.70;99.90;;;;;;5116740;28;20254;-77
2022/08/09 08:24:54;;;;;;;6.70;3.08;;;30.50;99.90;;;;;;5116198;28;20560;-76
2022/08/09 08:27:24;;;;;;;3.67;3.20;;;30.80;99.90;;;;;;5116952;28;20167;-75
2022/08/09 08:29:51;;;;;;;9.85;3.20;;;30.00;99.90;;;;;;5116310;28;20183;-76
2022/08/09 08:32:18;;;;;;;5.57;3.10;;;30.70;99.90;;;;;;5116200;28;20347;-76
2022/08/09 08:34:44;;;;;;;10.68;3.47;;;30.90;99.90;;;;;;5116414;28;20194;-77
2022/08/09 08:37:10;;;;;;;5.32;2.90;;;31.30;99.90;;;;;;5098423;28;20204;-77
2022/08/09 08:39:36;;;;;;;5.68;3.03;;;32.20;99.90;;;;;;5115858;28;20170;-78
2022/08/09 08:42:02;;;;;;;8.25;3.08;;;32.40;99.90;;;;;;5098239;28;20175;-77
2022/08/09 08:44:28;;;;;;;4.65;2.78;;;32.40;99.90;;;;;;5116382;28;20171;-77
2022/08/09 08:46:55;;;;;;;5.95;2.60;;;32.40;99.90;;;;;;5116183;28;20681;-76
2022/08/09 08:49:21;;;;;;;6.15;2.65;;;31.90;99.90;;;;;;5115939;28;20610;-77
2022/08/09 08:51:48;;;;;;;2.90;2.58;;;32.30;99.90;;;;;;5097666;28;20201;-77
2022/08/09 08:54:14;;;;;;;2.95;2.33;;;31.70;99.90;;;;;;5115750;28;20648;-76
2022/08/09 08:56:40;;;;;;;2.60;2.28;;;30.90;99.90;;;;;;5116261;28;20629;-77
2022/08/09 08:59:09;;;;;;;2.70;2.30;;;30.40;99.90;;;;;;5115747;28;20176;-75
2022/08/09 09:01:36;;;;;;;7.18;2.38;;;29.90;99.90;;;;;;5115492;28;20164;-75
2022/08/09 09:04:03;;;;;;;5.65;2.55;;;29.50;99.90;;;;;;5115833;28;20179;-76
2022/08/09 09:06:34;;;;;;;6.30;2.60;;;29.90;99.90;;;;;;5115615;28;20207;-73
2022/08/09 09:09:02;;;;;;;5.45;2.40;;;29.00;99.90;;;;;;5115754;28;20167;-75
2022/08/09 09:11:28;;;;;;;4.63;2.30;;;30.00;99.90;;;;;;5115631;28;20171;-75
2022/08/09 09:13:57;;;;;;;4.85;2.20;;;30.70;99.90;;;;;;5115771;28;20659;-75
2022/08/09 09:16:32;;;;;;;3.45;2.00;;;30.60;99.90;;;;;;5097123;28;20223;-74
2022/08/09 09:19:05;;;;;;;2.72;2.45;;;29.30;99.90;;;;;;5115762;28;20167;-74
2022/08/09 09:21:31;;;;;;;5.55;2.10;;;28.90;99.90;;;;;;5115890;28;20163;-74
2022/08/09 09:24:03;;;;;;;3.17;2.08;;;28.50;99.90;;;;;;5115314;28;20235;-74
2022/08/09 09:26:29;;;;;;;5.03;2.10;;;28.10;99.90;;;;;;5115730;28;20235;-73
2022/08/09 09:28:55;;;;;;;5.13;2.47;;;28.30;99.90;;;;;;5115471;28;20206;-75
2022/08/09 09:31:22;;;;;;;7.05;2.65;;;30.00;99.90;;;;;;5115251;28;20221;-75
2022/08/09 09:33:48;;;;;;;7.50;2.90;;;29.70;99.90;;;;;;5114834;28;20250;-74
2022/08/09 09:36:13;;;;;;;3.03;2.55;;;30.50;99.90;;;;;;5096723;28;20262;-74
2022/08/09 09:38:46;;;;;;;4.93;2.40;;;30.00;99.90;;;;;;5115111;28;20198;-75
2022/08/09 09:41:27;;;;;;;2.63;2.25;;;29.90;99.90;;;;;;5097118;28;20175;-76
2022/08/09 09:43:54;;;;;;;2.92;1.70;;;31.00;99.90;;;;;;5115358;28;20216;-75
2022/08/09 09:46:44;;;;;;;4.65;1.75;;;31.30;99.90;;;;;;5114949;28;20661;-75
2022/08/09 09:49:12;;;;;;;3.08;1.90;;;29.80;99.90;;;;;;5115316;28;20163;-75
2022/08/09 09:51:40;;;;;;;4.75;1.90;;;30.50;99.90;;;;;;5114966;28;20623;-75
2022/08/09 09:54:17;;;;;;;2.65;2.13;;;30.80;99.90;;;;;;5114331;28;20159;-75
2022/08/09 09:56:46;;;;;;;4.40;1.83;;;30.30;99.90;;;;;;5114812;28;20193;-75
2022/08/09 09:59:14;;;;;;;6.20;2.05;;;30.10;99.90;;;;;;5114739;28;20254;-75
2022/08/09 10:01:44;;;;;;;1.80;1.70;;;31.00;99.90;;;;;;5114930;28;20172;-76
2022/08/09 10:04:17;;;;;;;1.90;1.80;;;29.50;99.90;;;;;;5114641;28;20250;-76
2022/08/09 10:06:45;;;;;;;4.35;1.85;;;29.30;99.90;;;;;;5114448;28;20295;-76
2022/08/09 10:09:11;;;;;;;3.03;1.80;;;28.50;99.90;;;;;;5114820;28;20168;-75
2022/08/09 10:11:38;;;;;;;5.45;1.88;;;28.40;99.90;;;;;;5114596;28;20171;-75
2022/08/09 10:14:04;;;;;;;3.20;1.75;;;28.70;99.90;;;;;;5114643;28;20168;-76
2022/08/09 10:16:31;;;;;;;7.30;2.05;;;29.00;99.90;;;;;;5114077;28;20268;-76
2022/08/09 10:19:08;;;;;;;2.95;1.70;;;28.60;99.90;;;;;;5114717;28;20266;-75
2022/08/09 10:21:43;;;;;;;3.40;1.85;;;29.00;99.90;;;;;;5095340;28;20163;-75
2022/08/09 10:24:10;;;;;;;2.55;1.83;;;29.00;99.90;;;;;;5114689;28;20167;-73
2022/08/09 10:26:37;;;;;;;2.67;2.20;;;28.70;99.90;;;;;;5113414;28;20199;-73
2022/08/09 10:29:04;;;;;;;2.85;1.90;;;29.00;99.90;;;;;;5114271;28;20236;-75
2022/08/09 10:31:30;;;;;;;5.40;2.05;;;29.60;99.90;;;;;;5113212;28;20191;-75
2022/08/09 10:33:56;;;;;;;2.53;1.73;;;29.60;99.90;;;;;;5114025;28;20594;-75
2022/08/09 10:36:22;;;;;;;4.68;2.17;;;29.50;99.90;;;;;;5113493;28;20175;-74
2022/08/09 10:38:48;;;;;;;2.60;1.70;;;29.40;99.90;;;;;;5112920;28;20621;-75
2022/08/09 10:41:16;;;;;;;3.85;2.28;;;29.70;99.90;;;;;;5095070;28;20175;-75
2022/08/09 10:43:47;;;;;;;2.42;1.63;;;30.10;99.90;;;;;;5113693;28;20258;-75
2022/08/09 10:46:28;;;;;;;4.78;2.00;;;30.30;99.90;;;;;;5113098;28;20355;-75
2022/08/09 10:49:20;;;;;;;2.58;2.05;;;30.60;99.90;;;;;;5112915;28;20164;-73
2022/08/09 10:52:04;;;;;;;3.75;2.28;;;29.70;99.90;;;;;;5112708;28;20171;-74
2022/08/09 10:54:29;;;;;;;3.15;1.83;;;30.90;99.90;;;;;;5094964;28;20175;-74
2022/08/09 10:57:07;;;;;;;7.20;2.70;;;31.00;99.90;;;;;;5113539;28;20572;-73
2022/08/09 10:59:34;;;;;;;4.38;2.17;;;30.00;99.90;;;;;;5112472;28;20173;-74
2022/08/09 11:02:00;;;;;;;3.78;1.85;;;29.70;99.90;;;;;;5112443;28;20164;-74
2022/08/09 11:04:28;;;;;;;4.28;1.98;;;30.40;99.90;;;;;;5112186;28;20166;-74
2022/08/09 11:07:02;;;;;;;2.88;1.90;;;30.10;99.90;;;;;;5112671;28;20199;-74
2022/08/09 11:09:39;;;;;;;2.38;1.80;;;29.00;99.90;;;;;;5112749;28;20183;-74
2022/08/09 11:12:24;;;;;;;2.95;2.30;;;29.20;99.90;;;;;;5112588;28;20159;-75
2022/08/09 11:15:00;;;;;;;4.00;2.10;;;29.00;99.90;;;;;;5112418;28;20231;-74
2022/08/09 11:17:25;;;;;;;2.83;2.38;;;28.90;99.90;;;;;;5112895;28;20201;-74
2022/08/09 11:20:10;;;;;;;4.80;2.35;;;28.70;99.90;;;;;;5112171;28;20517;-75
2022/08/09 11:22:39;;;;;;;7.20;2.20;;;28.50;99.90;;;;;;5112829;28;20163;-75
2022/08/09 11:25:07;;;;;;;2.45;2.15;;;29.40;99.90;;;;;;5112493;28;20201;-74
2022/08/09 11:27:38;;;;;;;2.85;1.70;;;28.80;99.90;;;;;;5112451;28;20202;-74
2022/08/09 11:30:09;;;;;;;3.40;1.80;;;28.50;99.90;;;;;;5113689;28;20183;-76
2022/08/09 11:32:46;;;;;;;2.60;2.00;;;27.90;99.90;;;;;;5112683;28;20167;-75
2022/08/09 11:35:26;;;;;;;3.45;2.10;;;28.50;99.90;;;;;;5112842;28;20198;-75
2022/08/09 11:38:28;;;;;;;3.20;2.00;;;28.20;99.90;;;;;;5112768;28;20226;-75
2022/08/09 11:40:54;;;;;;;5.95;1.88;;;28.20;99.90;;;;;;5112993;28;20558;-73
2022/08/09 11:43:26;;;;;;;2.35;2.15;;;28.20;99.90;;;;;;5112922;28;20193;-74
2022/08/09 11:46:03;;;;;;;2.42;2.22;;;28.10;99.90;;;;;;5112606;28;20338;-74
2022/08/09 11:48:31;;;;;;;4.53;2.15;;;27.90;99.90;;;;;;5112194;28;20254;-74
2022/08/09 11:50:59;;;;;;;4.43;1.80;;;28.00;99.90;;;;;;5112937;28;20236;-74
2022/08/09 11:53:26;;;;;;;7.60;2.97;;;28.50;99.90;;;;;;5112663;28;20250;-73
2022/08/09 11:55:55;;;;;;;2.75;1.98;;;28.20;99.90;;;;;;5113074;28;20190;-73
2022/08/09 11:58:22;;;;;;;3.83;2.00;;;28.20;99.90;;;;;;5112850;28;20257;-75
2022/08/09 12:00:52;;;;;;;3.05;2.08;;;28.90;99.90;;;;;;5112775;28;20175;-72
2022/08/09 12:03:21;;;;;;;4.18;2.10;;;28.30;99.90;;;;;;5112005;28;20164;-73
2022/08/09 12:05:48;;;;;;;4.25;1.98;;;27.80;99.90;;;;;;5112069;28;20214;-73
2022/08/09 12:08:15;;;;;;;3.10;1.90;;;27.20;99.90;;;;;;5094722;28;20175;-73
2022/08/09 12:10:49;;;;;;;3.20;1.95;;;27.50;99.90;;;;;;5112698;28;20171;-73
2022/08/09 12:13:38;;;;;;;3.72;1.95;;;27.50;99.90;;;;;;5112868;28;20168;-73
2022/08/09 12:16:22;;;;;;;5.50;2.05;;;27.20;99.90;;;;;;5112284;28;20226;-74
2022/08/09 12:18:50;;;;;;;4.05;2.33;;;27.40;99.90;;;;;;5112305;28;20175;-74
2022/08/09 12:21:42;;;;;;;2.70;1.80;;;28.00;99.90;;;;;;5112790;28;20661;-73
2022/08/09 12:24:10;;;;;;;3.80;2.22;;;27.60;99.90;;;;;;5010426;28;20190;-73
2022/08/09 12:26:49;;;;;;;2.70;2.10;;;27.40;99.90;;;;;;5010133;28;20713;-73
2022/08/09 12:29:19;;;;;;;6.43;2.00;;;27.50;99.90;;;;;;5010266;28;20193;-72
2022/08/09 12:31:48;;;;;;;4.95;2.30;;;27.20;99.90;;;;;;5009287;28;20709;-74
2022/08/09 12:34:15;;;;;;;2.92;2.30;;;27.10;99.90;;;;;;5010157;28;20197;-73
2022/08/09 12:36:55;;;;;;;3.47;2.17;;;27.40;99.90;;;;;;5010176;28;20618;-75
2022/08/09 12:39:21;;;;;;;7.25;2.50;;;27.90;99.90;;;;;;5010525;28;20175;-74
2022/08/09 12:41:47;;;;;;;4.18;2.38;;;28.10;99.90;;;;;;5010019;28;20187;-74
2022/08/09 12:44:14;;;;;;;2.28;1.75;;;28.20;99.90;;;;;;5010286;28;20179;-75
2022/08/09 12:46:45;;;;;;;3.80;1.95;;;28.10;99.90;;;;;;5009143;28;20214;-75
2022/08/09 12:49:12;;;;;;;4.07;1.80;;;28.30;99.90;;;;;;5010097;28;20178;-75
2022/08/09 12:51:38;;;;;;;10.48;2.33;;;27.90;99.90;;;;;;5013160;28;20179;-75
2022/08/09 12:54:05;;;;;;;2.75;1.80;;;28.10;99.90;;;;;;5013237;28;20325;-75